Fargo, ND

11:27 PM CDT on August 20, 2014 (GMT -0500)
Moorhead Municipal | Change Station
CLOSE
Current Station
Airport
Location: Moorhead,
Elevation: 919 ft
Nearby Weather Stations

Elev 919 ft 46.84 °N, 96.66 °W | Updated 12 minutes ago

Clear
Clear
73 °F
Feels Like 73 °F
N
9
Wind Variable Wind from SE

Today
High -- | Low -- °F
--% Chance of Precip.
Yesterday
High -- | Low -- °F
Precip. -- in
6:31 AM 8:29 PM
Waning Crescent, 17% visible
Pressure 29.79 in
Visibility 10.0 miles
Clouds Clear
Dew Point 72 °F
Humidity 94%
Rainfall 0.00 in
Snow Depth Not available.
UV 0 out of 12
Pollen 10.70 out of 12
Air Quality Not available.
Flu Activity Not available.
METAR KJKJ 210415Z AUTO 13008KT 10SM CLR 23/22 A2979 RMK AO2

More Conditions Fewer Conditions

Pressure 29.79 in
Visibility 10.0 miles
Clouds Clear
Dew Point 72 °F
Humidity 94%
Rainfall 0.00 in
Snow Depth Not available.
UV 0 out of 12
Pollen 10.70 out of 12
Air Quality Not available.
Flu Activity Not available.
METAR KJKJ 210415Z AUTO 13008KT 10SM CLR 23/22 A2979 RMK AO2

More Conditions Fewer Conditions

10-Day Weather Forecast

Almanac

Astronomy

Aug. 20, 2014 Rise Set
Actual Time 6:31 AM CDT 8:29 PM CDT
Civil Twilight 5:58 AM CDT 9:01 PM CDT
Nautical Twilight 5:18 AM CDT 9:41 PM CDT
Astronomical Twilight 4:33 AM CDT 10:26 PM CDT
Moon 2:05 AM CDT (8/20) 5:21 PM CDT (8/20)
Length of Visible Light 15h 03m
Length of Day
13h 57m
Tomorrow will be 3m 6s shorter.
Waning Crescent, 17% of the Moon is Illuminated
Aug 21
Waning Crescent
Aug 25
New
Sep 2
First Quarter
Sep 8
Full
Sep 15
Last Quarter

Today's Extremes

State Highs State Lows

Community

WunderPhotos

Upload Photos

1,745,852 photos uploaded!

Nearby

Snow Depth

Station Depth Elevation
No new snow has been reported.

Earthquake Activity

City Distance Mag. Time & Date
No recent earthquake activity has been reported nearby.
Minimum magnitude displayed is 2.5.

Coastal Water Temperatures

Place Temperature
No Stations Reporting

Nearby Weather Stations